sensor_id;sensor_type;location;lat;lon;timestamp;temperature;humidity
65972;SHT31;52726;48.852;9.152;2023-02-15T01:35:05;-2.01;95.19
65972;SHT31;52726;48.852;9.152;2023-02-15T01:37:31;-2.01;95.06
65972;SHT31;52726;48.852;9.152;2023-02-15T01:39:57;-1.98;95.24
65972;SHT31;52726;48.852;9.152;2023-02-15T01:42:24;-1.94;95.20
65972;SHT31;52726;48.852;9.152;2023-02-15T01:44:52;-1.91;95.15
65972;SHT31;52726;48.852;9.152;2023-02-15T01:47:23;-1.95;95.07
65972;SHT31;52726;48.852;9.152;2023-02-15T01:52:30;-1.92;95.23
65972;SHT31;52726;48.852;9.152;2023-02-15T01:54:55;-1.88;95.40
65972;SHT31;52726;48.852;9.152;2023-02-15T01:57:23;-1.97;95.13
65972;SHT31;52726;48.852;9.152;2023-02-15T01:59:56;-2.05;94.84
65972;SHT31;52726;48.852;9.152;2023-02-15T02:02:23;-2.06;94.90
65972;SHT31;52726;48.852;9.152;2023-02-15T02:04:52;-2.09;94.99
65972;SHT31;52726;48.852;9.152;2023-02-15T02:07:24;-2.09;95.11
65972;SHT31;52726;48.852;9.152;2023-02-15T02:09:51;-2.09;94.99
65972;SHT31;52726;48.852;9.152;2023-02-15T02:12:17;-2.15;94.78
65972;SHT31;52726;48.852;9.152;2023-02-15T02:14:44;-2.15;95.06
65972;SHT31;52726;48.852;9.152;2023-02-15T02:33:51;-2.23;95.37
65972;SHT31;52726;48.852;9.152;2023-02-15T02:36:22;-2.25;95.52
65972;SHT31;52726;48.852;9.152;2023-02-15T02:39:06;-2.36;95.44
65972;SHT31;52726;48.852;9.152;2023-02-15T02:41:41;-2.40;95.60
65972;SHT31;52726;48.852;9.152;2023-02-15T02:44:44;-2.49;95.68
65972;SHT31;52726;48.852;9.152;2023-02-15T02:47:17;-2.49;95.92
65972;SHT31;52726;48.852;9.152;2023-02-15T02:49:45;-2.50;96.22
65972;SHT31;52726;48.852;9.152;2023-02-15T02:55:10;-2.50;96.19
65972;SHT31;52726;48.852;9.152;2023-02-15T02:57:37;-2.54;96.36
65972;SHT31;52726;48.852;9.152;2023-02-15T03:00:07;-2.50;96.47
65972;SHT31;52726;48.852;9.152;2023-02-15T03:02:40;-2.53;96.57
65972;SHT31;52726;48.852;9.152;2023-02-15T03:05:13;-2.53;96.67
65972;SHT31;52726;48.852;9.152;2023-02-15T03:07:41;-2.52;96.74
65972;SHT31;52726;48.852;9.152;2023-02-15T03:10:08;-2.46;96.81
65972;SHT31;52726;48.852;9.152;2023-02-15T03:12:36;-2.39;97.05
65972;SHT31;52726;48.852;9.152;2023-02-15T03:17:41;-2.49;96.46
65972;SHT31;52726;48.852;9.152;2023-02-15T03:20:29;-2.54;96.65
65972;SHT31;52726;48.852;9.152;2023-02-15T03:23:04;-2.46;97.01
65972;SHT31;52726;48.852;9.152;2023-02-15T03:25:38;-2.47;96.95
65972;SHT31;52726;48.852;9.152;2023-02-15T03:28:11;-2.40;96.97
65972;SHT31;52726;48.852;9.152;2023-02-15T03:30:39;-2.40;96.74
65972;SHT31;52726;48.852;9.152;2023-02-15T03:33:08;-2.40;96.73
65972;SHT31;52726;48.852;9.152;2023-02-15T03:35:43;-2.37;96.69
65972;SHT31;52726;48.852;9.152;2023-02-15T03:38:13;-2.39;96.70
65972;SHT31;52726;48.852;9.152;2023-02-15T03:40:44;-2.37;96.82
65972;SHT31;52726;48.852;9.152;2023-02-15T03:43:48;-2.35;96.85
65972;SHT31;52726;48.852;9.152;2023-02-15T03:49:03;-2.33;96.77
65972;SHT31;52726;48.852;9.152;2023-02-15T03:51:33;-2.29;96.84
65972;SHT31;52726;48.852;9.152;2023-02-15T03:54:06;-2.29;96.89
65972;SHT31;52726;48.852;9.152;2023-02-15T03:56:45;-2.25;97.00
65972;SHT31;52726;48.852;9.152;2023-02-15T03:59:31;-2.23;96.92
65972;SHT31;52726;48.852;9.152;2023-02-15T06:54:38;-2.32;97.09
65972;SHT31;52726;48.852;9.152;2023-02-15T06:57:03;-2.25;97.28
65972;SHT31;52726;48.852;9.152;2023-02-15T06:59:28;-2.26;97.29
65972;SHT31;52726;48.852;9.152;2023-02-15T07:01:54;-2.25;97.11
65972;SHT31;52726;48.852;9.152;2023-02-15T07:04:19;-2.25;97.03
65972;SHT31;52726;48.852;9.152;2023-02-15T07:06:44;-2.22;97.01
65972;SHT31;52726;48.852;9.152;2023-02-15T07:09:11;-2.25;96.79
65972;SHT31;52726;48.852;9.152;2023-02-15T07:11:37;-2.30;96.56
65972;SHT31;52726;48.852;9.152;2023-02-15T07:14:21;-2.28;96.91
65972;SHT31;52726;48.852;9.152;2023-02-15T07:16:47;-2.35;96.56
65972;SHT31;52726;48.852;9.152;2023-02-15T07:19:12;-2.30;96.93
65972;SHT31;52726;48.852;9.152;2023-02-15T07:21:37;-2.37;96.63
65972;SHT31;52726;48.852;9.152;2023-02-15T07:24:03;-2.33;96.87
65972;SHT31;52726;48.852;9.152;2023-02-15T07:26:30;-2.28;96.89
65972;SHT31;52726;48.852;9.152;2023-02-15T07:28:55;-2.26;96.79
65972;SHT31;52726;48.852;9.152;2023-02-15T07:31:21;-2.28;96.48
65972;SHT31;52726;48.852;9.152;2023-02-15T07:33:46;-2.30;96.45
65972;SHT31;52726;48.852;9.152;2023-02-15T07:36:12;-2.33;96.49
65972;SHT31;52726;48.852;9.152;2023-02-15T07:38:39;-2.28;96.62
65972;SHT31;52726;48.852;9.152;2023-02-15T07:41:07;-2.22;96.53
65972;SHT31;52726;48.852;9.152;2023-02-15T07:43:35;-2.28;96.16
65972;SHT31;52726;48.852;9.152;2023-02-15T07:46:06;-2.23;96.41
65972;SHT31;52726;48.852;9.152;2023-02-15T07:48:35;-2.15;96.35
65972;SHT31;52726;48.852;9.152;2023-02-15T07:51:02;-2.06;96.49
65972;SHT31;52726;48.852;9.152;2023-02-15T07:53:29;-2.02;96.35
65972;SHT31;52726;48.852;9.152;2023-02-15T07:55:54;-2.02;95.97
65972;SHT31;52726;48.852;9.152;2023-02-15T07:58:22;-1.94;96.34
65972;SHT31;52726;48.852;9.152;2023-02-15T08:01:08;-1.91;96.04
65972;SHT31;52726;48.852;9.152;2023-02-15T08:03:33;-1.88;95.99
65972;SHT31;52726;48.852;9.152;2023-02-15T08:05:59;-1.89;96.17
65972;SHT31;52726;48.852;9.152;2023-02-15T08:08:26;-1.91;95.97
65972;SHT31;52726;48.852;9.152;2023-02-15T08:11:03;-2.01;95.78
65972;SHT31;52726;48.852;9.152;2023-02-15T08:13:49;-1.94;96.00
65972;SHT31;52726;48.852;9.152;2023-02-15T08:16:29;-1.89;96.08
65972;SHT31;52726;48.852;9.152;2023-02-15T08:18:56;-1.78;96.34
65972;SHT31;52726;48.852;9.152;2023-02-15T08:21:25;-1.74;95.95
65972;SHT31;52726;48.852;9.152;2023-02-15T08:23:51;-1.66;95.89
65972;SHT31;52726;48.852;9.152;2023-02-15T08:26:16;-1.60;95.98
65972;SHT31;52726;48.852;9.152;2023-02-15T08:28:42;-1.61;95.65
65972;SHT31;52726;48.852;9.152;2023-02-15T08:31:10;-1.68;95.19
65972;SHT31;52726;48.852;9.152;2023-02-15T08:33:38;-1.67;96.09
65972;SHT31;52726;48.852;9.152;2023-02-15T08:36:05;-1.56;95.90
65972;SHT31;52726;48.852;9.152;2023-02-15T08:38:31;-1.47;95.84
65972;SHT31;52726;48.852;9.152;2023-02-15T08:40:57;-1.54;95.17
65972;SHT31;52726;48.852;9.152;2023-02-15T08:43:22;-1.51;95.66
65972;SHT31;52726;48.852;9.152;2023-02-15T08:45:48;-1.49;95.63
65972;SHT31;52726;48.852;9.152;2023-02-15T08:48:13;-1.40;95.67
65972;SHT31;52726;48.852;9.152;2023-02-15T08:50:38;-1.35;95.14
65972;SHT31;52726;48.852;9.152;2023-02-15T08:53:04;-1.33;95.27
65972;SHT31;52726;48.852;9.152;2023-02-15T08:55:30;-1.28;94.70
65972;SHT31;52726;48.852;9.152;2023-02-15T08:57:55;-1.19;94.91
65972;SHT31;52726;48.852;9.152;2023-02-15T09:00:21;-1.22;94.65
65972;SHT31;52726;48.852;9.152;2023-02-15T09:02:48;-1.15;94.65
65972;SHT31;52726;48.852;9.152;2023-02-15T09:05:13;-0.92;94.92
65972;SHT31;52726;48.852;9.152;2023-02-15T09:07:39;-0.81;94.53
65972;SHT31;52726;48.852;9.152;2023-02-15T09:10:05;-0.80;94.32
65972;SHT31;52726;48.852;9.152;2023-02-15T09:12:31;-0.81;94.17
65972;SHT31;52726;48.852;9.152;2023-02-15T09:14:56;-0.68;94.19
65972;SHT31;52726;48.852;9.152;2023-02-15T09:17:21;-0.65;93.59
65972;SHT31;52726;48.852;9.152;2023-02-15T09:19:46;-0.63;93.66
65972;SHT31;52726;48.852;9.152;2023-02-15T09:22:12;-0.60;94.14
65972;SHT31;52726;48.852;9.152;2023-02-15T09:24:37;-0.81;93.50
65972;SHT31;52726;48.852;9.152;2023-02-15T09:27:02;-0.78;94.10
65972;SHT31;52726;48.852;9.152;2023-02-15T09:29:28;-0.58;94.31
65972;SHT31;52726;48.852;9.152;2023-02-15T09:31:55;-0.52;93.64
65972;SHT31;52726;48.852;9.152;2023-02-15T09:34:21;-0.32;94.20
65972;SHT31;52726;48.852;9.152;2023-02-15T09:36:47;-0.17;93.44
65972;SHT31;52726;48.852;9.152;2023-02-15T09:39:22;0.13;93.49
65972;SHT31;52726;48.852;9.152;2023-02-15T09:55:30;1.15;90.26
65972;SHT31;52726;48.852;9.152;2023-02-15T09:58:10;1.11;89.29
65972;SHT31;52726;48.852;9.152;2023-02-15T10:00:58;1.09;89.47
65972;SHT31;52726;48.852;9.152;2023-02-15T10:06:37;1.34;88.70
65972;SHT31;52726;48.852;9.152;2023-02-15T10:09:33;1.42;88.59
65972;SHT31;52726;48.852;9.152;2023-02-15T10:12:19;1.26;88.35
65972;SHT31;52726;48.852;9.152;2023-02-15T10:25:45;1.22;88.61
65972;SHT31;52726;48.852;9.152;2023-02-15T10:28:42;1.28;89.03
65972;SHT31;52726;48.852;9.152;2023-02-15T10:31:25;1.36;88.33
65972;SHT31;52726;48.852;9.152;2023-02-15T10:34:16;1.43;87.77
65972;SHT31;52726;48.852;9.152;2023-02-15T10:56:10;2.01;86.58
65972;SHT31;52726;48.852;9.152;2023-02-15T11:01:40;2.22;87.19
65972;SHT31;52726;48.852;9.152;2023-02-15T11:07:33;2.38;87.14
65972;SHT31;52726;48.852;9.152;2023-02-15T11:12:38;2.54;85.92
65972;SHT31;52726;48.852;9.152;2023-02-15T11:15:51;2.70;87.99
65972;SHT31;52726;48.852;9.152;2023-02-15T11:20:41;3.01;87.20
65972;SHT31;52726;48.852;9.152;2023-02-15T11:23:13;3.04;86.59
65972;SHT31;52726;48.852;9.152;2023-02-15T11:25:43;3.03;86.18
65972;SHT31;52726;48.852;9.152;2023-02-15T11:28:18;3.12;86.54
65972;SHT31;52726;48.852;9.152;2023-02-15T11:30:51;3.17;86.00
65972;SHT31;52726;48.852;9.152;2023-02-15T11:33:35;3.32;87.28
65972;SHT31;52726;48.852;9.152;2023-02-15T11:36:18;3.46;86.08
65972;SHT31;52726;48.852;9.152;2023-02-15T11:38:46;3.55;85.52
65972;SHT31;52726;48.852;9.152;2023-02-15T11:41:18;3.66;85.90
65972;SHT31;52726;48.852;9.152;2023-02-15T11:43:53;3.77;86.52
65972;SHT31;52726;48.852;9.152;2023-02-15T11:46:20;3.86;84.50
65972;SHT31;52726;48.852;9.152;2023-02-15T11:48:47;3.94;86.15
65972;SHT31;52726;48.852;9.152;2023-02-15T11:51:15;4.04;85.70
65972;SHT31;52726;48.852;9.152;2023-02-15T11:53:41;4.04;85.87
65972;SHT31;52726;48.852;9.152;2023-02-15T11:56:20;4.08;86.29
65972;SHT31;52726;48.852;9.152;2023-02-15T11:59:06;4.11;86.56
65972;SHT31;52726;48.852;9.152;2023-02-15T12:01:37;4.18;86.37
65972;SHT31;52726;48.852;9.152;2023-02-15T12:04:51;4.24;85.54
65972;SHT31;52726;48.852;9.152;2023-02-15T12:09:52;4.21;84.84
65972;SHT31;52726;48.852;9.152;2023-02-15T12:12:28;4.30;85.38
65972;SHT31;52726;48.852;9.152;2023-02-15T12:15:03;4.32;85.58
65972;SHT31;52726;48.852;9.152;2023-02-15T12:17:52;4.38;85.82
65972;SHT31;52726;48.852;9.152;2023-02-15T12:23:08;4.31;85.28
65972;SHT31;52726;48.852;9.152;2023-02-15T12:25:52;4.40;85.49
65972;SHT31;52726;48.852;9.152;2023-02-15T12:30:47;4.37;85.62
65972;SHT31;52726;48.852;9.152;2023-02-15T12:38:40;4.51;85.20
65972;SHT31;52726;48.852;9.152;2023-02-15T12:41:22;4.66;85.43
65972;SHT31;52726;48.852;9.152;2023-02-15T12:44:23;4.68;85.12
65972;SHT31;52726;48.852;9.152;2023-02-15T12:50:11;4.83;85.55
65972;SHT31;52726;48.852;9.152;2023-02-15T12:52:46;4.99;84.74
65972;SHT31;52726;48.852;9.152;2023-02-15T12:55:23;4.97;84.67
65972;SHT31;52726;48.852;9.152;2023-02-15T12:57:49;4.83;84.64
65972;SHT31;52726;48.852;9.152;2023-02-15T13:02:47;5.04;84.24
65972;SHT31;52726;48.852;9.152;2023-02-15T13:05:41;5.13;84.62
65972;SHT31;52726;48.852;9.152;2023-02-15T13:08:16;5.26;83.27
65972;SHT31;52726;48.852;9.152;2023-02-15T13:11:02;5.31;83.29
65972;SHT31;52726;48.852;9.152;2023-02-15T13:13:31;5.41;83.08
65972;SHT31;52726;48.852;9.152;2023-02-15T13:16:02;5.37;82.56
65972;SHT31;52726;48.852;9.152;2023-02-15T13:18:39;5.60;83.36
65972;SHT31;52726;48.852;9.152;2023-02-15T13:21:14;5.66;83.36
65972;SHT31;52726;48.852;9.152;2023-02-15T13:23:44;5.76;82.64
65972;SHT31;52726;48.852;9.152;2023-02-15T13:26:15;5.90;83.17
65972;SHT31;52726;48.852;9.152;2023-02-15T13:29:06;6.00;82.34
65972;SHT31;52726;48.852;9.152;2023-02-15T13:31:35;5.96;80.70
65972;SHT31;52726;48.852;9.152;2023-02-15T13:34:09;6.00;80.62
65972;SHT31;52726;48.852;9.152;2023-02-15T13:36:54;6.09;81.39
65972;SHT31;52726;48.852;9.152;2023-02-15T13:39:42;6.09;79.75
65972;SHT31;52726;48.852;9.152;2023-02-15T13:42:25;6.10;79.72
65972;SHT31;52726;48.852;9.152;2023-02-15T13:50:38;6.48;80.24
65972;SHT31;52726;48.852;9.152;2023-02-15T13:55:37;6.73;79.19
65972;SHT31;52726;48.852;9.152;2023-02-15T14:01:08;6.76;77.37
65972;SHT31;52726;48.852;9.152;2023-02-15T14:17:23;7.27;75.73
65972;SHT31;52726;48.852;9.152;2023-02-15T14:19:57;7.40;76.19
65972;SHT31;52726;48.852;9.152;2023-02-15T14:28:05;7.57;75.31
65972;SHT31;52726;48.852;9.152;2023-02-15T14:30:38;7.55;75.06
65972;SHT31;52726;48.852;9.152;2023-02-15T14:33:40;7.68;75.12
65972;SHT31;52726;48.852;9.152;2023-02-15T14:36:11;7.76;74.94
65972;SHT31;52726;48.852;9.152;2023-02-15T14:49:25;8.10;73.97
65972;SHT31;52726;48.852;9.152;2023-02-15T14:56:43;8.17;73.26
65972;SHT31;52726;48.852;9.152;2023-02-15T14:59:20;8.22;74.67
65972;SHT31;52726;48.852;9.152;2023-02-15T15:01:58;8.20;74.81
65972;SHT31;52726;48.852;9.152;2023-02-15T15:09:33;8.24;74.49
65972;SHT31;52726;48.852;9.152;2023-02-15T15:14:43;8.16;74.52
65972;SHT31;52726;48.852;9.152;2023-02-15T15:20:14;8.16;73.43
65972;SHT31;52726;48.852;9.152;2023-02-15T15:25:45;7.96;74.53
65972;SHT31;52726;48.852;9.152;2023-02-15T15:31:37;7.87;74.85
65972;SHT31;52726;48.852;9.152;2023-02-15T15:37:28;7.66;75.88
65972;SHT31;52726;48.852;9.152;2023-02-15T15:45:50;7.32;76.64
65972;SHT31;52726;48.852;9.152;2023-02-15T15:48:37;7.23;77.02
65972;SHT31;52726;48.852;9.152;2023-02-15T15:53:43;7.09;77.19
65972;SHT31;52726;48.852;9.152;2023-02-15T15:56:32;6.96;77.94
65972;SHT31;52726;48.852;9.152;2023-02-15T15:59:01;6.90;78.42
65972;SHT31;52726;48.852;9.152;2023-02-15T16:01:30;6.83;78.76
65972;SHT31;52726;48.852;9.152;2023-02-15T16:03:57;6.69;78.95
65972;SHT31;52726;48.852;9.152;2023-02-15T16:08:56;6.52;78.99
65972;SHT31;52726;48.852;9.152;2023-02-15T16:11:24;6.42;79.10
65972;SHT31;52726;48.852;9.152;2023-02-15T16:13:51;6.37;79.40
65972;SHT31;52726;48.852;9.152;2023-02-15T16:16:27;6.25;79.70
65972;SHT31;52726;48.852;9.152;2023-02-15T16:18:57;6.21;80.51
65972;SHT31;52726;48.852;9.152;2023-02-15T16:21:30;6.09;80.67
65972;SHT31;52726;48.852;9.152;2023-02-15T16:27:22;5.77;81.64
65972;SHT31;52726;48.852;9.152;2023-02-15T16:29:51;5.67;81.70
65972;SHT31;52726;48.852;9.152;2023-02-15T16:32:26;5.58;81.93
65972;SHT31;52726;48.852;9.152;2023-02-15T16:35:00;5.49;81.96
65972;SHT31;52726;48.852;9.152;2023-02-15T16:37:33;5.37;82.16
65972;SHT31;52726;48.852;9.152;2023-02-15T16:39:58;5.26;82.12
65972;SHT31;52726;48.852;9.152;2023-02-15T16:42:25;5.13;82.36
65972;SHT31;52726;48.852;9.152;2023-02-15T16:47:25;4.84;82.61
65972;SHT31;52726;48.852;9.152;2023-02-15T16:49:52;4.72;83.14
65972;SHT31;52726;48.852;9.152;2023-02-15T16:52:24;4.53;83.12
65972;SHT31;52726;48.852;9.152;2023-02-15T16:54:58;4.42;83.82
65972;SHT31;52726;48.852;9.152;2023-02-15T16:57:33;4.28;84.24
65972;SHT31;52726;48.852;9.152;2023-02-15T17:00:06;4.13;84.59
65972;SHT31;52726;48.852;9.152;2023-02-15T17:02:33;4.07;85.27
65972;SHT31;52726;48.852;9.152;2023-02-15T17:07:40;3.84;84.89
65972;SHT31;52726;48.852;9.152;2023-02-15T17:10:35;3.70;85.35
65972;SHT31;52726;48.852;9.152;2023-02-15T17:13:15;3.59;85.24
65972;SHT31;52726;48.852;9.152;2023-02-15T17:18:53;3.70;85.97
65972;SHT31;52726;48.852;9.152;2023-02-15T17:21:31;3.59;84.98
65972;SHT31;52726;48.852;9.152;2023-02-15T17:24:04;3.36;85.10
65972;SHT31;52726;48.852;9.152;2023-02-15T17:26:34;3.28;86.00
65972;SHT31;52726;48.852;9.152;2023-02-15T17:29:36;3.15;86.73
65972;SHT31;52726;48.852;9.152;2023-02-15T17:32:26;3.00;87.02
65972;SHT31;52726;48.852;9.152;2023-02-15T17:37:48;2.77;87.07
65972;SHT31;52726;48.852;9.152;2023-02-15T17:40:34;2.75;87.18
65972;SHT31;52726;48.852;9.152;2023-02-15T17:43:01;2.63;87.14
65972;SHT31;52726;48.852;9.152;2023-02-15T17:45:50;2.54;87.54
65972;SHT31;52726;48.852;9.152;2023-02-15T17:48:21;2.50;87.66
65972;SHT31;52726;48.852;9.152;2023-02-15T17:50:50;2.41;87.71
65972;SHT31;52726;48.852;9.152;2023-02-15T17:53:17;2.38;87.60
65972;SHT31;52726;48.852;9.152;2023-02-15T17:55:43;2.32;87.50
65972;SHT31;52726;48.852;9.152;2023-02-15T17:58:11;2.24;87.75
65972;SHT31;52726;48.852;9.152;2023-02-15T18:00:57;2.15;87.74
65972;SHT31;52726;48.852;9.152;2023-02-15T18:03:46;2.12;88.42
65972;SHT31;52726;48.852;9.152;2023-02-15T18:06:31;2.01;88.77
65972;SHT31;52726;48.852;9.152;2023-02-15T18:09:18;2.00;89.66
65972;SHT31;52726;48.852;9.152;2023-02-15T18:12:24;1.95;89.71
65972;SHT31;52726;48.852;9.152;2023-02-15T18:14:50;1.85;90.04
65972;SHT31;52726;48.852;9.152;2023-02-15T18:17:17;1.77;89.77
65972;SHT31;52726;48.852;9.152;2023-02-15T18:19:43;1.67;89.90
65972;SHT31;52726;48.852;9.152;2023-02-15T18:22:15;1.62;90.10
65972;SHT31;52726;48.852;9.152;2023-02-15T18:24:41;1.59;90.14
65972;SHT31;52726;48.852;9.152;2023-02-15T18:27:06;1.53;90.24
65972;SHT31;52726;48.852;9.152;2023-02-15T18:29:32;1.47;90.45
65972;SHT31;52726;48.852;9.152;2023-02-15T18:31:58;1.40;90.58
65972;SHT31;52726;48.852;9.152;2023-02-15T18:34:30;1.56;91.82
65972;SHT31;52726;48.852;9.152;2023-02-15T18:36:57;1.52;90.72
65972;SHT31;52726;48.852;9.152;2023-02-15T18:39:38;1.40;90.29
65972;SHT31;52726;48.852;9.152;2023-02-15T18:42:35;1.43;90.02
65972;SHT31;52726;48.852;9.152;2023-02-15T18:45:31;1.39;90.76
65972;SHT31;52726;48.852;9.152;2023-02-15T18:48:27;1.34;90.46
65972;SHT31;52726;48.852;9.152;2023-02-15T18:50:53;1.28;90.70
65972;SHT31;52726;48.852;9.152;2023-02-15T18:53:19;1.25;91.08
65972;SHT31;52726;48.852;9.152;2023-02-15T18:55:46;1.19;91.17
65972;SHT31;52726;48.852;9.152;2023-02-15T18:58:19;1.14;91.25
65972;SHT31;52726;48.852;9.152;2023-02-15T19:00:45;1.07;91.41
65972;SHT31;52726;48.852;9.152;2023-02-15T19:03:14;1.11;91.92
65972;SHT31;52726;48.852;9.152;2023-02-15T19:05:45;1.07;92.06
65972;SHT31;52726;48.852;9.152;2023-02-15T19:08:19;1.01;92.02
65972;SHT31;52726;48.852;9.152;2023-02-15T19:10:48;0.98;92.42
65972;SHT31;52726;48.852;9.152;2023-02-15T19:13:16;0.99;92.82
65972;SHT31;52726;48.852;9.152;2023-02-15T19:15:43;0.92;92.52
65972;SHT31;52726;48.852;9.152;2023-02-15T19:18:10;0.87;92.49
65972;SHT31;52726;48.852;9.152;2023-02-15T19:20:38;0.85;92.76
65972;SHT31;52726;48.852;9.152;2023-02-15T19:23:07;0.84;92.58
65972;SHT31;52726;48.852;9.152;2023-02-15T19:25:37;0.83;92.25
65972;SHT31;52726;48.852;9.152;2023-02-15T19:28:17;0.77;92.03
65972;SHT31;52726;48.852;9.152;2023-02-15T19:30:46;0.73;92.11
65972;SHT31;52726;48.852;9.152;2023-02-15T19:33:17;0.64;91.60
65972;SHT31;52726;48.852;9.152;2023-02-15T19:35:53;0.53;91.30
65972;SHT31;52726;48.852;9.152;2023-02-15T19:38:51;0.54;91.39
65972;SHT31;52726;48.852;9.152;2023-02-15T19:41:35;0.56;91.65
65972;SHT31;52726;48.852;9.152;2023-02-15T19:44:02;0.60;92.01
65972;SHT31;52726;48.852;9.152;2023-02-15T19:46:27;0.59;92.09
65972;SHT31;52726;48.852;9.152;2023-02-15T19:48:53;0.64;92.86
65972;SHT31;52726;48.852;9.152;2023-02-15T19:51:20;0.59;92.82
65972;SHT31;52726;48.852;9.152;2023-02-15T19:57:04;0.54;93.34
65972;SHT31;52726;48.852;9.152;2023-02-15T19:59:33;0.60;94.20
65972;SHT31;52726;48.852;9.152;2023-02-15T20:02:05;0.59;94.03
65972;SHT31;52726;48.852;9.152;2023-02-15T20:07:25;0.52;92.85
65972;SHT31;52726;48.852;9.152;2023-02-15T20:09:51;0.49;92.95
65972;SHT31;52726;48.852;9.152;2023-02-15T20:12:22;0.43;92.92
65972;SHT31;52726;48.852;9.152;2023-02-15T20:14:49;0.40;92.70
65972;SHT31;52726;48.852;9.152;2023-02-15T20:17:14;0.39;92.96
65972;SHT31;52726;48.852;9.152;2023-02-15T20:19:40;0.46;93.66
65972;SHT31;52726;48.852;9.152;2023-02-15T20:22:11;0.57;94.28
65972;SHT31;52726;48.852;9.152;2023-02-15T20:24:41;0.59;94.59
65972;SHT31;52726;48.852;9.152;2023-02-15T20:27:15;0.64;94.84
65972;SHT31;52726;48.852;9.152;2023-02-15T20:29:41;0.67;94.83
65972;SHT31;52726;48.852;9.152;2023-02-15T20:32:09;0.63;94.72
65972;SHT31;52726;48.852;9.152;2023-02-15T20:34:34;0.53;94.25
65972;SHT31;52726;48.852;9.152;2023-02-15T20:36:59;0.53;94.53
65972;SHT31;52726;48.852;9.152;2023-02-15T20:39:25;0.60;95.00
65972;SHT31;52726;48.852;9.152;2023-02-15T20:41:50;0.59;94.83
65972;SHT31;52726;48.852;9.152;2023-02-15T20:44:26;0.57;94.67
65972;SHT31;52726;48.852;9.152;2023-02-15T20:46:54;0.52;94.41
65972;SHT31;52726;48.852;9.152;2023-02-15T20:49:21;0.50;94.49
65972;SHT31;52726;48.852;9.152;2023-02-15T20:51:48;0.52;94.53
65972;SHT31;52726;48.852;9.152;2023-02-15T20:54:20;0.45;93.98
65972;SHT31;52726;48.852;9.152;2023-02-15T20:56:46;0.45;94.19
65972;SHT31;52726;48.852;9.152;2023-02-15T20:59:28;0.42;93.92
65972;SHT31;52726;48.852;9.152;2023-02-15T21:01:59;0.38;93.96
65972;SHT31;52726;48.852;9.152;2023-02-15T21:04:30;0.40;94.56
65972;SHT31;52726;48.852;9.152;2023-02-15T21:06:56;0.33;94.33
65972;SHT31;52726;48.852;9.152;2023-02-15T21:09:22;0.29;94.13
65972;SHT31;52726;48.852;9.152;2023-02-15T21:11:49;0.22;93.66
65972;SHT31;52726;48.852;9.152;2023-02-15T21:14:17;0.19;93.85
65972;SHT31;52726;48.852;9.152;2023-02-15T21:16:43;0.26;94.27
65972;SHT31;52726;48.852;9.152;2023-02-15T21:19:17;0.23;93.63
65972;SHT31;52726;48.852;9.152;2023-02-15T21:21:43;0.16;93.44
65972;SHT31;52726;48.852;9.152;2023-02-15T21:24:15;0.09;93.46
65972;SHT31;52726;48.852;9.152;2023-02-15T21:26:45;0.09;93.83
65972;SHT31;52726;48.852;9.152;2023-02-15T21:29:29;0.06;94.10
65972;SHT31;52726;48.852;9.152;2023-02-15T21:31:55;-0.01;93.96
65972;SHT31;52726;48.852;9.152;2023-02-15T21:34:24;0.01;94.65
65972;SHT31;52726;48.852;9.152;2023-02-15T21:36:50;-0.02;94.29
65972;SHT31;52726;48.852;9.152;2023-02-15T21:39:23;-0.06;94.33
65972;SHT31;52726;48.852;9.152;2023-02-15T21:41:53;-0.05;94.45
65972;SHT31;52726;48.852;9.152;2023-02-15T21:44:38;-0.10;94.41
65972;SHT31;52726;48.852;9.152;2023-02-15T21:47:27;-0.03;94.85
65972;SHT31;52726;48.852;9.152;2023-02-15T21:50:20;0.06;95.29
65972;SHT31;52726;48.852;9.152;2023-02-15T21:53:08;0.04;94.93
65972;SHT31;52726;48.852;9.152;2023-02-15T21:55:34;-0.06;94.41
65972;SHT31;52726;48.852;9.152;2023-02-15T21:58:00;-0.09;94.43
65972;SHT31;52726;48.852;9.152;2023-02-15T22:00:26;-0.16;94.18
65972;SHT31;52726;48.852;9.152;2023-02-15T22:02:55;-0.17;94.45
65972;SHT31;52726;48.852;9.152;2023-02-15T22:05:28;-0.20;94.80
65972;SHT31;52726;48.852;9.152;2023-02-15T22:07:54;-0.25;94.62
65972;SHT31;52726;48.852;9.152;2023-02-15T22:10:22;-0.22;94.85
65972;SHT31;52726;48.852;9.152;2023-02-15T22:12:47;-0.27;94.74
65972;SHT31;52726;48.852;9.152;2023-02-15T22:15:22;-0.30;94.41
65972;SHT31;52726;48.852;9.152;2023-02-15T22:17:48;-0.27;94.60
65972;SHT31;52726;48.852;9.152;2023-02-15T22:20:17;-0.26;94.36
65972;SHT31;52726;48.852;9.152;2023-02-15T22:22:44;-0.29;94.55
65972;SHT31;52726;48.852;9.152;2023-02-15T22:25:15;-0.29;94.26
65972;SHT31;52726;48.852;9.152;2023-02-15T22:27:41;-0.46;93.04
65972;SHT31;52726;48.852;9.152;2023-02-15T22:32:45;-0.58;93.55
65972;SHT31;52726;48.852;9.152;2023-02-15T22:35:15;-0.53;93.54
65972;SHT31;52726;48.852;9.152;2023-02-15T22:37:41;-0.54;93.72
65972;SHT31;52726;48.852;9.152;2023-02-15T22:40:07;-0.56;93.95
65972;SHT31;52726;48.852;9.152;2023-02-15T22:42:32;-0.52;94.41
65972;SHT31;52726;48.852;9.152;2023-02-15T22:44:58;-0.47;94.65
65972;SHT31;52726;48.852;9.152;2023-02-15T22:47:25;-0.50;94.71
65972;SHT31;52726;48.852;9.152;2023-02-15T22:49:51;-0.52;94.94
65972;SHT31;52726;48.852;9.152;2023-02-15T22:52:17;-0.53;95.07
65972;SHT31;52726;48.852;9.152;2023-02-15T22:54:43;-0.47;95.49
65972;SHT31;52726;48.852;9.152;2023-02-15T22:57:17;-0.43;95.37
65972;SHT31;52726;48.852;9.152;2023-02-15T22:59:44;-0.52;94.95
65972;SHT31;52726;48.852;9.152;2023-02-15T23:02:13;-0.60;94.53
65972;SHT31;52726;48.852;9.152;2023-02-15T23:04:38;-0.63;94.90
65972;SHT31;52726;48.852;9.152;2023-02-15T23:07:18;-0.60;95.17
65972;SHT31;52726;48.852;9.152;2023-02-15T23:09:44;-0.44;95.61
65972;SHT31;52726;48.852;9.152;2023-02-15T23:12:28;-0.57;94.53
65972;SHT31;52726;48.852;9.152;2023-02-15T23:15:14;-0.61;94.79
65972;SHT31;52726;48.852;9.152;2023-02-15T23:17:39;-0.75;93.92
65972;SHT31;52726;48.852;9.152;2023-02-15T23:20:05;-0.80;94.26
65972;SHT31;52726;48.852;9.152;2023-02-15T23:22:30;-0.77;94.27
65972;SHT31;52726;48.852;9.152;2023-02-15T23:24:55;-0.34;96.26
65972;SHT31;52726;48.852;9.152;2023-02-15T23:27:21;-0.17;95.37
65972;SHT31;52726;48.852;9.152;2023-02-15T23:30:12;-0.25;94.51
65972;SHT31;52726;48.852;9.152;2023-02-15T23:32:38;-0.22;94.60
65972;SHT31;52726;48.852;9.152;2023-02-15T23:35:17;-0.29;93.93
65972;SHT31;52726;48.852;9.152;2023-02-15T23:37:43;-0.32;94.34
65972;SHT31;52726;48.852;9.152;2023-02-15T23:40:21;-0.36;94.07
65972;SHT31;52726;48.852;9.152;2023-02-15T23:43:08;-0.49;93.81
65972;SHT31;52726;48.852;9.152;2023-02-15T23:45:37;-0.54;93.90
65972;SHT31;52726;48.852;9.152;2023-02-15T23:48:03;-0.40;94.65
65972;SHT31;52726;48.852;9.152;2023-02-15T23:50:48;-0.44;94.04
65972;SHT31;52726;48.852;9.152;2023-02-15T23:53:14;-0.34;93.98
65972;SHT31;52726;48.852;9.152;2023-02-15T23:55:42;-0.30;93.80
65972;SHT31;52726;48.852;9.152;2023-02-15T23:58:15;-0.36;93.37
